Карточка аэропорта UMMS

Внимание!
Информация на этой странице в стадии наполнения.
Если вы не увидели какой-то информации, или заметили неточность - пожалуйста сообщите нам!
Спасибо!
Команда RU-STAFF
Название аэропортаMinsk 2
Название аэропорта (англ.)Minsk 2
Превышение681 ft. (207.6 m.)
Координаты53°52.95', 28°1.848'
Высота перехода6000 ft
Эшелон переходаQNH>=733mm:FL80; QNH<733mm:FL90
Коды ответчика0020−0027; 6230-6277
Зона ОрВДМинск РПИ (UMMV)
Данные METARUMMS 271100Z 22004MPS 9000 -RA BKN006 OVC016 01/00 Q1007 NOSIG RMK QBB190
Проноз погоды (TAF)UMMS 270804Z 2708/2806 19005MPS 3000 BR OVC003 TEMPO 2708/2718 21006G11MPS 0400 -FZDZ SHSNRA FZFG OVC002 BKN012CB TEMPO 2718/2806 23009G14MPS 0500 -FZDZ +SHSNRA OVC002 BKN012CB
NOTAMshow/hide NOTAM
AWOS   TABLE

Информация о ВПП

ВПП Длина ВПП (м.) Покрытие Курс ВПП Частота ILS
13L3700Цементобетон130110.7
13R3641Цементобетон130108.9
31L3641Цементобетон310109.7
31R3700Цементобетон310110.1

Диспетчерские позиции

Позывной Наименование органа УВД Частота
UMMS_APPMinsk Approach125.900
UMMS_R_APPMinsk Radar125.250
UMMS_TWRMinsk Tower130.400
UMMS_GNDMinsk Ground129.950



Спутниковое изображение